createdAt,value
2016-11-25T00:02:01.536Z,97.175
2016-11-25T00:04:54.471Z,98.166
2016-11-25T00:07:47.512Z,97.318
2016-11-25T00:10:40.371Z,97.325
2016-11-25T00:13:34.080Z,97.443
2016-11-25T00:16:26.064Z,98.986
2016-11-25T00:19:19.794Z,99.307
2016-11-25T00:22:13.175Z,98.378
2016-11-25T00:25:05.064Z,97.896
2016-11-25T00:27:57.921Z,98.497
2016-11-25T00:30:50.816Z,98.820
2016-11-25T00:33:43.658Z,99.369
2016-11-25T00:36:36.336Z,99.312
2016-11-25T00:39:28.951Z,99.169
2016-11-25T00:42:22.715Z,98.456
2016-11-25T00:45:14.564Z,98.016
2016-11-25T00:48:08.174Z,98.280
2016-11-25T00:50:59.975Z,97.376
2016-11-25T00:53:52.677Z,98.580
2016-11-25T00:56:45.379Z,97.511
2016-11-25T00:59:38.093Z,98.332
2016-11-25T01:02:32.329Z,97.955
2016-11-25T01:05:24.052Z,98.805
2016-11-25T01:08:16.840Z,97.731
2016-11-25T01:11:09.589Z,97.749
2016-11-25T01:14:03.244Z,97.728
2016-11-25T01:16:55.114Z,97.817
2016-11-25T01:19:47.884Z,98.890
2016-11-25T01:22:40.633Z,98.413
2016-11-25T01:25:33.386Z,99.162
2016-11-25T01:28:27.128Z,98.377
2016-11-25T01:31:18.922Z,98.039
2016-11-25T01:34:11.892Z,98.271
2016-11-25T01:37:04.602Z,98.822
2016-11-25T01:39:58.391Z,98.662
2016-11-25T01:42:50.247Z,98.226
2016-11-25T01:45:42.971Z,98.993
2016-11-25T01:48:35.794Z,97.617
2016-11-25T01:51:28.637Z,97.471
2016-11-25T01:54:21.554Z,98.277
2016-11-25T01:57:14.438Z,98.757
2016-11-25T02:00:07.369Z,98.631
2016-11-25T02:03:00.391Z,98.534
2016-11-25T02:05:53.222Z,98.416
2016-11-25T02:08:47.040Z,98.160
2016-11-25T02:11:39.883Z,98.858
2016-11-25T02:14:31.722Z,98.562
2016-11-25T02:17:24.660Z,99.099
2016-11-25T02:20:17.497Z,98.153
2016-11-25T02:23:10.257Z,98.112
2016-11-25T02:26:03.133Z,98.302
2016-11-25T02:28:56.000Z,98.743
2016-11-25T02:31:50.663Z,98.037
2016-11-25T02:34:42.829Z,97.396
2016-11-25T02:37:34.858Z,98.471
2016-11-25T02:40:27.784Z,98.342
2016-11-25T02:43:20.768Z,98.379
2016-11-25T02:46:13.665Z,97.069
2016-11-25T02:49:06.930Z,98.225
2016-11-25T02:51:59.799Z,98.019
2016-11-25T02:54:52.820Z,97.756
2016-11-25T02:57:45.781Z,97.971
2016-11-25T03:00:38.733Z,97.852
2016-11-25T03:03:33.273Z,97.905
2016-11-25T03:06:24.502Z,98.248
2016-11-25T03:09:17.427Z,97.143
2016-11-25T03:12:10.297Z,97.683
2016-11-25T03:15:03.112Z,97.379
2016-11-25T03:17:56.011Z,97.394
2016-11-25T03:20:48.941Z,98.043
2016-11-25T03:23:42.121Z,97.712
2016-11-25T03:26:35.929Z,97.336
2016-11-25T03:29:27.853Z,97.860
2016-11-25T03:32:20.633Z,97.750
2016-11-25T03:35:13.414Z,98.956
2016-11-25T03:38:06.258Z,98.164
2016-11-25T03:40:59.052Z,97.780
2016-11-25T03:43:51.982Z,97.574
2016-11-25T03:46:44.839Z,97.911
2016-11-25T03:49:37.694Z,98.572
2016-11-25T03:52:30.495Z,99.202
2016-11-25T03:55:23.338Z,98.766
2016-11-25T03:58:16.349Z,99.418
2016-11-25T04:01:09.925Z,98.912
2016-11-25T04:04:02.957Z,98.335
2016-11-25T04:06:54.894Z,98.644
2016-11-25T04:09:47.753Z,98.866
2016-11-25T04:12:40.613Z,98.208
2016-11-25T04:15:33.314Z,97.596
2016-11-25T04:18:26.066Z,98.033
2016-11-25T04:21:18.750Z,98.638
2016-11-25T04:24:12.096Z,98.551
2016-11-25T04:27:05.024Z,99.538
2016-11-25T04:29:57.133Z,98.489
2016-11-25T04:32:50.025Z,99.779
2016-11-25T04:35:43.869Z,98.985
2016-11-25T04:38:35.889Z,99.535
2016-11-25T04:41:30.240Z,99.170
2016-11-25T04:44:23.181Z,99.134
2016-11-25T04:47:16.108Z,99.110
2016-11-25T04:50:08.087Z,99.208
2016-11-25T04:53:00.943Z,99.163
2016-11-25T04:55:53.837Z,98.921
2016-11-25T04:58:46.796Z,99.173
2016-11-25T05:01:40.646Z,98.754
2016-11-25T05:04:32.445Z,98.248
2016-11-25T05:07:25.275Z,99.531
2016-11-25T05:10:19.171Z,99.225
2016-11-25T05:13:11.054Z,99.541
2016-11-25T05:16:03.959Z,99.536
2016-11-25T05:18:57.758Z,98.940
2016-11-25T05:21:49.684Z,98.595
2016-11-25T05:24:42.370Z,98.499
2016-11-25T05:27:35.212Z,98.545
2016-11-25T05:30:28.008Z,99.098
2016-11-25T05:33:20.927Z,99.000
2016-11-25T05:36:14.452Z,98.113
2016-11-25T05:39:07.566Z,98.829
2016-11-25T05:41:59.533Z,98.879
2016-11-25T05:44:52.365Z,99.588
2016-11-25T05:47:46.212Z,99.010
2016-11-25T05:50:38.309Z,99.079
2016-11-25T05:53:31.153Z,99.790
2016-11-25T05:56:24.082Z,99.979
2016-11-25T05:59:17.096Z,100.000
2016-11-25T06:02:11.064Z,99.752
2016-11-25T06:05:03.057Z,99.946
2016-11-25T06:07:56.998Z,100.000
2016-11-25T06:10:49.055Z,100.000
2016-11-25T06:13:42.008Z,100.000
2016-11-25T06:16:35.059Z,100.000
2016-11-25T06:19:28.136Z,100.000
2016-11-25T06:22:22.135Z,100.000
2016-11-25T06:25:14.257Z,100.000
2016-11-25T06:28:07.394Z,100.000
2016-11-25T06:31:00.395Z,100.000
2016-11-25T06:33:53.461Z,100.000
2016-11-25T06:36:46.853Z,100.000
2016-11-25T06:39:39.807Z,100.000
2016-11-25T06:42:32.746Z,100.000
2016-11-25T06:45:26.676Z,100.000
2016-11-25T06:48:19.670Z,100.000
2016-11-25T06:51:11.746Z,100.000
2016-11-25T06:54:05.606Z,100.000
2016-11-25T06:56:57.531Z,100.000
2016-11-25T06:59:50.711Z,100.000
2016-11-25T07:02:43.686Z,100.000
2016-11-25T07:05:37.553Z,100.000
2016-11-25T07:08:29.400Z,99.999
2016-11-25T07:11:22.200Z,100.000
2016-11-25T07:14:15.091Z,100.000
2016-11-25T07:17:08.012Z,100.000
2016-11-25T07:20:00.951Z,100.000
2016-11-25T07:22:54.418Z,100.000
2016-11-25T07:25:47.382Z,100.000
2016-11-25T07:28:41.326Z,100.000
2016-11-25T07:31:33.532Z,100.000
2016-11-25T07:34:26.484Z,100.000
2016-11-25T07:37:19.504Z,100.000
2016-11-25T07:40:12.588Z,100.000
2016-11-25T07:43:05.535Z,100.000
2016-11-25T07:45:58.536Z,100.000
2016-11-25T07:48:51.674Z,100.000
2016-11-25T07:51:44.675Z,100.000
2016-11-25T07:54:37.692Z,100.000
2016-11-25T07:57:30.741Z,100.000
2016-11-25T08:00:23.752Z,100.000
2016-11-25T08:03:17.134Z,100.000
2016-11-25T08:06:10.251Z,100.000
2016-11-25T08:09:03.253Z,100.000
2016-11-25T08:11:56.297Z,100.000
2016-11-25T08:14:50.284Z,100.000
2016-11-25T08:17:42.429Z,100.000
2016-11-25T08:20:35.518Z,100.000
2016-11-25T08:23:28.617Z,100.000
2016-11-25T08:26:22.604Z,100.000
2016-11-25T08:29:14.713Z,100.000
2016-11-25T08:32:07.857Z,100.000
2016-11-25T08:35:00.946Z,100.000
2016-11-25T08:37:54.043Z,100.000
2016-11-25T08:40:47.197Z,100.000
2016-11-25T08:43:39.836Z,100.000
2016-11-25T08:46:32.573Z,100.000
2016-11-25T08:49:25.266Z,100.000
2016-11-25T08:52:17.952Z,100.000
2016-11-25T08:55:10.629Z,100.000
2016-11-25T08:58:03.361Z,99.930
2016-11-25T09:00:56.872Z,99.673
2016-11-25T09:03:48.720Z,99.793
2016-11-25T09:06:41.460Z,99.592
2016-11-25T09:09:34.198Z,99.627
2016-11-25T09:12:26.945Z,99.544
2016-11-25T09:15:19.921Z,99.461
2016-11-25T09:18:12.691Z,99.450
2016-11-25T09:21:05.411Z,98.993
2016-11-25T09:23:58.121Z,99.115
2016-11-25T09:26:50.704Z,99.008
2016-11-25T09:29:43.940Z,98.805
2016-11-25T09:32:36.643Z,98.855
2016-11-25T09:35:29.299Z,98.742
2016-11-25T09:38:22.973Z,98.832
2016-11-25T09:41:14.740Z,98.660
2016-11-25T09:44:07.410Z,98.386
2016-11-25T09:47:01.154Z,98.046
2016-11-25T09:49:54.009Z,98.363
2016-11-25T09:52:47.226Z,98.641
2016-11-25T09:55:39.393Z,98.551
2016-11-25T09:58:32.614Z,98.664
2016-11-25T10:01:25.693Z,98.057
2016-11-25T10:04:18.532Z,98.053
2016-11-25T10:07:11.633Z,98.283
2016-11-25T10:10:04.462Z,98.408
2016-11-25T10:12:57.262Z,98.568
2016-11-25T10:15:50.088Z,98.282
2016-11-25T10:18:42.877Z,98.285
2016-11-25T10:21:35.708Z,98.350
2016-11-25T10:24:28.842Z,98.359
2016-11-25T10:27:22.141Z,98.513
2016-11-25T10:30:15.300Z,98.695
2016-11-25T10:33:08.434Z,98.288
2016-11-25T10:36:01.684Z,98.311
2016-11-25T10:38:54.797Z,98.519
2016-11-25T10:41:47.533Z,98.297
2016-11-25T10:44:40.944Z,98.283
2016-11-25T10:47:34.168Z,97.995
2016-11-25T10:50:27.243Z,97.939
2016-11-25T10:53:21.016Z,97.756
2016-11-25T10:56:13.221Z,97.920
2016-11-25T10:59:06.092Z,97.820
2016-11-25T11:01:59.134Z,96.928
2016-11-25T11:04:52.087Z,96.842
2016-11-25T11:07:45.212Z,96.558
2016-11-25T11:10:38.377Z,96.579
2016-11-25T11:13:32.414Z,96.645
2016-11-25T11:16:24.583Z,97.034
2016-11-25T11:19:17.696Z,96.840
2016-11-25T11:22:10.733Z,96.735
2016-11-25T11:25:04.023Z,96.782
2016-11-25T11:27:56.607Z,96.714
2016-11-25T11:30:49.767Z,97.079
2016-11-25T11:33:42.556Z,97.042
2016-11-25T11:36:35.449Z,96.697
2016-11-25T11:39:28.633Z,96.784
2016-11-25T11:42:21.683Z,96.445
2016-11-25T11:45:15.784Z,96.669
2016-11-25T11:48:07.884Z,96.011
2016-11-25T11:51:01.062Z,95.916
2016-11-25T11:53:55.142Z,95.572
2016-11-25T11:56:47.222Z,95.667
2016-11-25T11:59:40.293Z,95.586
2016-11-25T12:02:33.505Z,95.863
2016-11-25T12:05:26.467Z,95.922
2016-11-25T12:08:19.661Z,96.227
2016-11-25T12:11:12.681Z,95.828
2016-11-25T12:14:05.737Z,95.784
2016-11-25T12:16:58.813Z,95.344
2016-11-25T12:19:52.005Z,95.608
2016-11-25T12:22:45.165Z,95.151
2016-11-25T12:25:38.346Z,94.871
2016-11-25T12:28:32.483Z,95.274
2016-11-25T12:31:24.673Z,95.550
2016-11-25T12:34:17.792Z,95.383
2016-11-25T12:37:11.005Z,94.834
2016-11-25T12:40:04.060Z,95.104
2016-11-25T12:42:57.311Z,94.876
2016-11-25T12:45:50.447Z,94.864
2016-11-25T12:48:43.610Z,93.993
2016-11-25T12:51:36.795Z,94.701
2016-11-25T12:54:29.989Z,95.259
2016-11-25T12:57:23.242Z,95.249
2016-11-25T13:00:16.904Z,95.249
2016-11-25T13:03:10.043Z,94.923
2016-11-25T13:06:03.099Z,94.296
2016-11-25T13:08:56.174Z,94.037
2016-11-25T13:11:49.315Z,93.486
2016-11-25T13:14:42.461Z,93.783
2016-11-25T13:17:35.579Z,92.970
2016-11-25T13:20:28.746Z,94.019
2016-11-25T13:23:21.706Z,94.856
2016-11-25T13:26:14.751Z,94.237
2016-11-25T13:29:07.844Z,94.911
2016-11-25T13:32:01.062Z,94.400
2016-11-25T13:34:54.092Z,94.805
2016-11-25T13:37:47.223Z,94.755
2016-11-25T13:40:41.255Z,94.922
2016-11-25T13:43:33.390Z,94.877
2016-11-25T13:46:26.614Z,94.180
2016-11-25T13:49:19.811Z,93.366
2016-11-25T13:52:12.964Z,93.203
2016-11-25T13:55:06.030Z,92.748
2016-11-25T13:57:59.667Z,93.178
2016-11-25T14:00:52.742Z,93.330
2016-11-25T14:03:45.948Z,94.257
2016-11-25T14:06:39.157Z,93.933
2016-11-25T14:09:32.305Z,94.164
2016-11-25T14:12:25.536Z,93.252
2016-11-25T14:15:18.605Z,94.012
2016-11-25T14:18:11.708Z,92.900
2016-11-25T14:21:04.690Z,93.853
2016-11-25T14:23:57.839Z,93.110
2016-11-25T14:26:51.002Z,93.081
2016-11-25T14:29:43.944Z,92.501
2016-11-25T14:32:37.049Z,92.802
2016-11-25T14:35:30.149Z,92.664
2016-11-25T14:38:23.246Z,92.989
2016-11-25T14:41:16.342Z,93.159
2016-11-25T14:44:09.360Z,92.804
2016-11-25T14:47:02.537Z,93.063
2016-11-25T14:49:55.708Z,92.471
2016-11-25T14:52:48.766Z,93.726
2016-11-25T14:55:41.822Z,92.261
2016-11-25T14:58:34.850Z,92.386
2016-11-25T15:01:27.887Z,92.402
2016-11-25T15:04:20.889Z,93.295
2016-11-25T15:07:14.059Z,93.333
2016-11-25T15:10:07.181Z,93.333
2016-11-25T15:13:00.257Z,93.322
2016-11-25T15:15:53.379Z,93.032
2016-11-25T15:18:46.532Z,93.643
2016-11-25T15:21:39.619Z,93.111
2016-11-25T15:24:32.798Z,93.362
2016-11-25T15:27:25.821Z,92.549
2016-11-25T15:30:18.948Z,92.558
2016-11-25T15:33:11.972Z,92.969
2016-11-25T15:36:05.289Z,93.192
2016-11-25T15:38:58.405Z,93.560
2016-11-25T15:41:51.556Z,92.959
2016-11-25T15:44:44.686Z,92.848
2016-11-25T15:47:37.864Z,92.576
2016-11-25T15:50:31.094Z,92.331
2016-11-25T15:53:24.108Z,93.165
2016-11-25T15:56:17.182Z,93.429
2016-11-25T15:59:10.207Z,93.170
2016-11-25T16:02:03.260Z,93.360
2016-11-25T16:04:56.499Z,92.945
2016-11-25T16:07:49.595Z,92.949
2016-11-25T16:10:42.675Z,93.232
2016-11-25T16:13:35.633Z,93.049
2016-11-25T16:16:28.658Z,93.343
2016-11-25T16:19:21.758Z,93.415
2016-11-25T16:22:14.738Z,93.264
2016-11-25T16:25:07.781Z,92.366
2016-11-25T16:28:00.642Z,93.196
2016-11-25T16:30:53.524Z,93.522
2016-11-25T16:33:46.415Z,92.832
2016-11-25T16:36:39.318Z,93.142
2016-11-25T16:39:32.347Z,92.548
2016-11-25T16:42:25.123Z,92.734
2016-11-25T16:45:17.998Z,92.904
2016-11-25T16:48:10.946Z,93.226
2016-11-25T16:51:03.971Z,92.178
2016-11-25T16:53:57.249Z,92.401
2016-11-25T16:56:50.918Z,92.776
2016-11-25T16:59:44.174Z,93.030
2016-11-25T17:02:37.554Z,91.522
2016-11-25T17:05:30.978Z,92.676
2016-11-25T17:08:24.390Z,92.830
2016-11-25T17:11:17.723Z,93.393
2016-11-25T17:14:11.269Z,92.552
2016-11-25T17:17:04.522Z,92.727
2016-11-25T17:19:57.845Z,92.478
2016-11-25T17:22:51.024Z,93.103
2016-11-25T17:25:44.261Z,92.794
2016-11-25T17:28:37.594Z,92.537
2016-11-25T17:31:30.919Z,92.288
2016-11-25T17:34:24.307Z,92.195
2016-11-25T17:37:17.526Z,91.889
2016-11-25T17:40:10.788Z,92.231
2016-11-25T17:43:04.262Z,92.764
2016-11-25T17:45:57.484Z,92.944
2016-11-25T17:48:50.891Z,93.219
2016-11-25T17:51:44.262Z,93.147
2016-11-25T17:54:37.589Z,92.790
2016-11-25T17:57:30.928Z,92.189
2016-11-25T18:00:24.330Z,92.723
2016-11-25T18:03:17.542Z,91.843
2016-11-25T18:06:10.792Z,91.418
2016-11-25T18:09:07.068Z,91.974
2016-11-25T18:11:57.496Z,92.636
2016-11-25T18:14:50.867Z,92.583
2016-11-25T18:17:44.127Z,92.414
2016-11-25T18:20:37.446Z,92.224
2016-11-25T18:23:30.707Z,92.873
2016-11-25T18:26:24.053Z,92.912
2016-11-25T18:29:18.461Z,92.916
2016-11-25T18:32:10.833Z,93.492
2016-11-25T18:35:04.106Z,92.371
2016-11-25T18:37:57.294Z,92.643
2016-11-25T18:40:50.629Z,92.625
2016-11-25T18:43:44.996Z,93.217
2016-11-25T18:46:37.442Z,92.740
2016-11-25T18:49:32.218Z,92.450
2016-11-25T18:52:24.614Z,92.294
2016-11-25T18:55:17.878Z,91.578
2016-11-25T18:58:11.166Z,91.664
2016-11-25T19:01:04.359Z,92.388
2016-11-25T19:03:57.728Z,92.015
2016-11-25T19:06:51.142Z,92.502
2016-11-25T19:09:44.558Z,92.123
2016-11-25T19:12:37.653Z,92.869
2016-11-25T19:15:31.843Z,93.386
2016-11-25T19:18:25.058Z,92.603
2016-11-25T19:21:17.364Z,92.876
2016-11-25T19:24:11.552Z,93.550
2016-11-25T19:27:03.877Z,92.804
2016-11-25T19:29:57.235Z,92.307
2016-11-25T19:32:51.457Z,93.168
2016-11-25T19:35:44.775Z,92.154
2016-11-25T19:38:37.149Z,91.813
2016-11-25T19:41:30.317Z,92.271
2016-11-25T19:44:23.653Z,91.928
2016-11-25T19:47:16.820Z,92.497
2016-11-25T19:50:10.039Z,93.148
2016-11-25T19:53:03.426Z,92.934
2016-11-25T19:55:56.806Z,92.799
2016-11-25T19:58:50.141Z,91.730
2016-11-25T20:01:43.401Z,92.238
2016-11-25T20:04:36.499Z,92.160
2016-11-25T20:07:29.694Z,91.931
2016-11-25T20:10:23.717Z,92.479
2016-11-25T20:13:16.096Z,92.681
2016-11-25T20:16:09.307Z,92.470
2016-11-25T20:19:02.527Z,92.279
2016-11-25T20:21:55.788Z,92.072
2016-11-25T20:24:49.038Z,92.808
2016-11-25T20:27:42.387Z,93.473
2016-11-25T20:30:35.513Z,93.202
2016-11-25T20:33:28.759Z,92.779
2016-11-25T20:36:21.983Z,92.838
2016-11-25T20:39:15.175Z,92.948
2016-11-25T20:42:08.516Z,93.117
2016-11-25T20:45:01.943Z,93.270
2016-11-25T20:47:55.978Z,93.278
2016-11-25T20:50:48.320Z,92.564
2016-11-25T20:53:41.528Z,92.979
2016-11-25T20:56:34.795Z,92.964
2016-11-25T20:59:28.179Z,92.500
2016-11-25T21:02:21.451Z,92.363
2016-11-25T21:05:14.583Z,92.555
2016-11-25T21:08:07.881Z,92.533
2016-11-25T21:11:01.242Z,92.508
2016-11-25T21:13:54.427Z,92.245
2016-11-25T21:16:47.682Z,92.235
2016-11-25T21:19:41.809Z,92.035
2016-11-25T21:22:34.089Z,91.791
2016-11-25T21:25:27.392Z,93.099
2016-11-25T21:28:20.698Z,92.208
2016-11-25T21:31:13.974Z,93.020
2016-11-25T21:34:07.269Z,92.561
2016-11-25T21:37:00.418Z,92.503
2016-11-25T21:39:53.813Z,92.177
2016-11-25T21:42:47.110Z,92.189
2016-11-25T21:45:40.338Z,92.111
2016-11-25T21:48:33.700Z,91.994
2016-11-25T21:51:26.959Z,92.191
2016-11-25T21:54:21.269Z,92.224
2016-11-25T21:57:13.691Z,92.071
2016-11-25T22:00:06.941Z,91.802
2016-11-25T22:03:00.767Z,91.638
2016-11-25T22:05:53.902Z,92.019
2016-11-25T22:08:47.185Z,92.128
2016-11-25T22:11:40.601Z,92.453
2016-11-25T22:14:34.015Z,92.487
2016-11-25T22:17:27.409Z,91.849
2016-11-25T22:20:20.652Z,91.825
2016-11-25T22:23:13.953Z,91.800
2016-11-25T22:26:07.183Z,91.452
2016-11-25T22:29:00.349Z,92.020
2016-11-25T22:31:53.622Z,91.389
2016-11-25T22:34:46.895Z,91.334
2016-11-25T22:37:40.125Z,91.916
2016-11-25T22:40:33.551Z,91.731
2016-11-25T22:43:26.876Z,91.444
2016-11-25T22:46:20.105Z,91.397
2016-11-25T22:49:13.409Z,91.807
2016-11-25T22:52:06.765Z,92.440
2016-11-25T22:55:00.013Z,92.083
2016-11-25T22:57:53.240Z,91.473
2016-11-25T23:00:46.471Z,91.406
2016-11-25T23:03:39.748Z,91.951
2016-11-25T23:06:33.092Z,91.953
2016-11-25T23:09:26.323Z,91.792
2016-11-25T23:12:19.565Z,90.726
2016-11-25T23:15:12.825Z,91.262
2016-11-25T23:18:06.074Z,91.798
2016-11-25T23:20:59.366Z,91.763
2016-11-25T23:23:52.676Z,92.175
2016-11-25T23:26:45.984Z,92.581
2016-11-25T23:29:39.330Z,91.942
2016-11-25T23:32:32.584Z,92.234
2016-11-25T23:35:26.056Z,91.754
2016-11-25T23:38:18.992Z,92.174
2016-11-25T23:41:12.251Z,92.114
2016-11-25T23:44:05.514Z,91.984
2016-11-25T23:46:59.201Z,92.127
2016-11-25T23:49:52.273Z,92.033
2016-11-25T23:52:45.449Z,92.634
2016-11-25T23:55:38.693Z,92.789
2016-11-25T23:58:32.033Z,92.196
